sensor_id;sensor_type;location;lat;lon;timestamp;temperature;humidity
2783;DHT22;1399;47.072;15.452;2022-11-06T00:01:05;12.10;54.10
2783;DHT22;1399;47.072;15.452;2022-11-06T00:03:31;12.10;54.10
2783;DHT22;1399;47.072;15.452;2022-11-06T00:05:58;12.10;54.10
2783;DHT22;1399;47.072;15.452;2022-11-06T00:08:42;12.10;54.20
2783;DHT22;1399;47.072;15.452;2022-11-06T00:11:10;12.00;54.10
2783;DHT22;1399;47.072;15.452;2022-11-06T00:13:37;12.00;54.10
2783;DHT22;1399;47.072;15.452;2022-11-06T00:16:05;12.00;54.20
2783;DHT22;1399;47.072;15.452;2022-11-06T00:18:34;12.00;54.20
2783;DHT22;1399;47.072;15.452;2022-11-06T00:21:12;12.00;54.40
2783;DHT22;1399;47.072;15.452;2022-11-06T00:23:39;12.00;54.40
2783;DHT22;1399;47.072;15.452;2022-11-06T00:26:07;12.00;54.50
2783;DHT22;1399;47.072;15.452;2022-11-06T00:28:34;12.00;54.50
2783;DHT22;1399;47.072;15.452;2022-11-06T00:31:05;12.00;54.60
2783;DHT22;1399;47.072;15.452;2022-11-06T00:33:32;12.00;54.60
2783;DHT22;1399;47.072;15.452;2022-11-06T00:36:00;12.00;54.50
2783;DHT22;1399;47.072;15.452;2022-11-06T00:38:26;12.00;54.50
2783;DHT22;1399;47.072;15.452;2022-11-06T00:40:52;12.00;54.40
2783;DHT22;1399;47.072;15.452;2022-11-06T00:43:18;12.00;54.30
2783;DHT22;1399;47.072;15.452;2022-11-06T00:45:44;12.00;54.30
2783;DHT22;1399;47.072;15.452;2022-11-06T00:48:10;12.00;54.20
2783;DHT22;1399;47.072;15.452;2022-11-06T00:50:35;11.90;54.10
2783;DHT22;1399;47.072;15.452;2022-11-06T00:53:01;11.90;54.10
2783;DHT22;1399;47.072;15.452;2022-11-06T00:55:27;11.90;54.10
2783;DHT22;1399;47.072;15.452;2022-11-06T00:57:53;11.90;54.00
2783;DHT22;1399;47.072;15.452;2022-11-06T01:00:18;11.90;54.10
2783;DHT22;1399;47.072;15.452;2022-11-06T01:02:45;11.90;54.10
2783;DHT22;1399;47.072;15.452;2022-11-06T01:05:12;11.90;54.10
2783;DHT22;1399;47.072;15.452;2022-11-06T01:07:38;11.80;54.00
2783;DHT22;1399;47.072;15.452;2022-11-06T01:10:05;11.80;54.70
2783;DHT22;1399;47.072;15.452;2022-11-06T01:12:32;11.80;54.00
2783;DHT22;1399;47.072;15.452;2022-11-06T01:14:58;11.80;54.10
2783;DHT22;1399;47.072;15.452;2022-11-06T01:17:24;11.80;54.00
2783;DHT22;1399;47.072;15.452;2022-11-06T01:19:50;11.80;54.10
2783;DHT22;1399;47.072;15.452;2022-11-06T01:22:16;11.80;54.10
2783;DHT22;1399;47.072;15.452;2022-11-06T01:24:42;11.80;54.10
2783;DHT22;1399;47.072;15.452;2022-11-06T01:27:08;11.70;54.00
2783;DHT22;1399;47.072;15.452;2022-11-06T01:29:34;11.70;54.00
2783;DHT22;1399;47.072;15.452;2022-11-06T01:32:00;11.70;54.00
2783;DHT22;1399;47.072;15.452;2022-11-06T01:34:26;11.70;54.10
2783;DHT22;1399;47.072;15.452;2022-11-06T01:36:52;11.70;54.00
2783;DHT22;1399;47.072;15.452;2022-11-06T01:39:18;11.70;54.00
2783;DHT22;1399;47.072;15.452;2022-11-06T01:41:46;11.70;54.00
2783;DHT22;1399;47.072;15.452;2022-11-06T01:46:58;11.70;54.00
2783;DHT22;1399;47.072;15.452;2022-11-06T01:49:26;11.70;54.00
2783;DHT22;1399;47.072;15.452;2022-11-06T01:52:02;11.70;54.00
2783;DHT22;1399;47.072;15.452;2022-11-06T01:54:33;11.60;53.90
2783;DHT22;1399;47.072;15.452;2022-11-06T01:57:01;11.60;53.90
2783;DHT22;1399;47.072;15.452;2022-11-06T01:59:30;11.60;53.90
2783;DHT22;1399;47.072;15.452;2022-11-06T02:01:57;11.60;53.90
2783;DHT22;1399;47.072;15.452;2022-11-06T02:04:26;11.60;53.90
2783;DHT22;1399;47.072;15.452;2022-11-06T02:06:53;11.60;53.90
2783;DHT22;1399;47.072;15.452;2022-11-06T02:09:20;11.60;54.00
2783;DHT22;1399;47.072;15.452;2022-11-06T02:12:25;11.60;54.00
2783;DHT22;1399;47.072;15.452;2022-11-06T02:18:36;11.50;53.90
2783;DHT22;1399;47.072;15.452;2022-11-06T02:29:46;11.50;54.00
2783;DHT22;1399;47.072;15.452;2022-11-06T02:32:38;11.50;54.00
2783;DHT22;1399;47.072;15.452;2022-11-06T02:35:28;11.50;54.10
2783;DHT22;1399;47.072;15.452;2022-11-06T02:38:23;11.50;54.10
2783;DHT22;1399;47.072;15.452;2022-11-06T02:40:51;11.50;54.10
2783;DHT22;1399;47.072;15.452;2022-11-06T02:43:20;11.40;53.90
2783;DHT22;1399;47.072;15.452;2022-11-06T02:45:55;11.40;54.00
2783;DHT22;1399;47.072;15.452;2022-11-06T02:48:28;11.40;54.00
2783;DHT22;1399;47.072;15.452;2022-11-06T02:50:57;11.40;54.00
2783;DHT22;1399;47.072;15.452;2022-11-06T02:53:26;11.40;54.00
2783;DHT22;1399;47.072;15.452;2022-11-06T02:56:01;11.40;54.00
2783;DHT22;1399;47.072;15.452;2022-11-06T02:58:36;11.40;54.00
2783;DHT22;1399;47.072;15.452;2022-11-06T03:01:13;11.40;54.00
2783;DHT22;1399;47.072;15.452;2022-11-06T03:03:44;11.40;54.10
2783;DHT22;1399;47.072;15.452;2022-11-06T03:06:36;11.40;54.10
2783;DHT22;1399;47.072;15.452;2022-11-06T03:09:11;11.40;54.20
2783;DHT22;1399;47.072;15.452;2022-11-06T03:11:39;11.30;54.20
2783;DHT22;1399;47.072;15.452;2022-11-06T03:14:16;11.30;54.10
2783;DHT22;1399;47.072;15.452;2022-11-06T03:17:03;11.30;54.10
2783;DHT22;1399;47.072;15.452;2022-11-06T03:19:34;11.30;54.00
2783;DHT22;1399;47.072;15.452;2022-11-06T03:22:25;11.30;53.80
2783;DHT22;1399;47.072;15.452;2022-11-06T03:30:17;11.30;54.00
2783;DHT22;1399;47.072;15.452;2022-11-06T03:32:51;11.30;54.10
2783;DHT22;1399;47.072;15.452;2022-11-06T03:35:37;11.20;54.00
2783;DHT22;1399;47.072;15.452;2022-11-06T03:38:09;11.20;54.00
2783;DHT22;1399;47.072;15.452;2022-11-06T03:40:41;11.20;53.90
2783;DHT22;1399;47.072;15.452;2022-11-06T03:43:11;11.20;54.00
2783;DHT22;1399;47.072;15.452;2022-11-06T03:45:39;11.20;54.10
2783;DHT22;1399;47.072;15.452;2022-11-06T03:53:24;11.20;54.20
2783;DHT22;1399;47.072;15.452;2022-11-06T03:55:59;11.20;54.20
2783;DHT22;1399;47.072;15.452;2022-11-06T03:58:32;11.20;54.20
2783;DHT22;1399;47.072;15.452;2022-11-06T04:01:02;11.10;54.10
2783;DHT22;1399;47.072;15.452;2022-11-06T04:03:40;11.10;54.10
2783;DHT22;1399;47.072;15.452;2022-11-06T04:06:16;11.10;54.10
2783;DHT22;1399;47.072;15.452;2022-11-06T04:08:46;11.10;54.00
2783;DHT22;1399;47.072;15.452;2022-11-06T04:11:34;11.10;54.10
2783;DHT22;1399;47.072;15.452;2022-11-06T04:14:23;11.10;54.20
2783;DHT22;1399;47.072;15.452;2022-11-06T04:16:56;11.00;54.70
2783;DHT22;1399;47.072;15.452;2022-11-06T04:19:23;11.00;54.20
2783;DHT22;1399;47.072;15.452;2022-11-06T04:28:28;11.00;54.20
2783;DHT22;1399;47.072;15.452;2022-11-06T04:33:42;11.00;54.40
2783;DHT22;1399;47.072;15.452;2022-11-06T04:36:15;11.00;54.40
2783;DHT22;1399;47.072;15.452;2022-11-06T04:44:34;11.00;54.50
2783;DHT22;1399;47.072;15.452;2022-11-06T04:47:08;11.00;54.60
2783;DHT22;1399;47.072;15.452;2022-11-06T04:49:37;11.00;54.70
2783;DHT22;1399;47.072;15.452;2022-11-06T04:52:07;10.90;54.60
2783;DHT22;1399;47.072;15.452;2022-11-06T04:54:34;10.90;54.70
2783;DHT22;1399;47.072;15.452;2022-11-06T04:57:02;10.90;54.70
2783;DHT22;1399;47.072;15.452;2022-11-06T04:59:32;10.90;54.80
2783;DHT22;1399;47.072;15.452;2022-11-06T05:02:00;10.90;54.70
2783;DHT22;1399;47.072;15.452;2022-11-06T05:04:26;10.90;54.80
2783;DHT22;1399;47.072;15.452;2022-11-06T05:06:51;10.90;54.70
2783;DHT22;1399;47.072;15.452;2022-11-06T05:09:17;10.90;54.70
2783;DHT22;1399;47.072;15.452;2022-11-06T05:11:43;10.90;54.70
2783;DHT22;1399;47.072;15.452;2022-11-06T05:14:09;10.90;54.70
2783;DHT22;1399;47.072;15.452;2022-11-06T05:16:35;10.90;54.70
2783;DHT22;1399;47.072;15.452;2022-11-06T05:19:01;10.90;54.60
2783;DHT22;1399;47.072;15.452;2022-11-06T05:21:27;10.80;54.50
2783;DHT22;1399;47.072;15.452;2022-11-06T05:24:11;10.90;54.60
2783;DHT22;1399;47.072;15.452;2022-11-06T05:26:37;10.90;54.60
2783;DHT22;1399;47.072;15.452;2022-11-06T05:29:03;10.80;54.50
2783;DHT22;1399;47.072;15.452;2022-11-06T05:31:28;10.80;54.50
2783;DHT22;1399;47.072;15.452;2022-11-06T05:33:54;10.80;54.50
2783;DHT22;1399;47.072;15.452;2022-11-06T05:36:20;10.80;54.60
2783;DHT22;1399;47.072;15.452;2022-11-06T05:38:46;10.80;54.50
2783;DHT22;1399;47.072;15.452;2022-11-06T05:41:12;10.80;54.50
2783;DHT22;1399;47.072;15.452;2022-11-06T05:43:38;10.80;54.50
2783;DHT22;1399;47.072;15.452;2022-11-06T05:46:03;10.80;54.50
2783;DHT22;1399;47.072;15.452;2022-11-06T05:48:29;10.80;54.60
2783;DHT22;1399;47.072;15.452;2022-11-06T05:51:03;10.80;54.50
2783;DHT22;1399;47.072;15.452;2022-11-06T05:53:34;10.80;55.20
2783;DHT22;1399;47.072;15.452;2022-11-06T05:56:01;10.80;54.50
2783;DHT22;1399;47.072;15.452;2022-11-06T05:58:27;10.80;54.50
2783;DHT22;1399;47.072;15.452;2022-11-06T06:00:57;10.80;54.50
2783;DHT22;1399;47.072;15.452;2022-11-06T06:03:23;10.70;54.40
2783;DHT22;1399;47.072;15.452;2022-11-06T06:05:50;10.70;54.50
2783;DHT22;1399;47.072;15.452;2022-11-06T06:08:16;10.70;54.40
2783;DHT22;1399;47.072;15.452;2022-11-06T06:10:45;10.70;54.50
2783;DHT22;1399;47.072;15.452;2022-11-06T06:13:13;10.70;55.00
2783;DHT22;1399;47.072;15.452;2022-11-06T06:15:39;10.70;54.40
2783;DHT22;1399;47.072;15.452;2022-11-06T06:18:06;10.70;54.50
2783;DHT22;1399;47.072;15.452;2022-11-06T06:20:33;10.70;54.40
2783;DHT22;1399;47.072;15.452;2022-11-06T06:22:59;10.70;54.50
2783;DHT22;1399;47.072;15.452;2022-11-06T06:25:26;10.70;54.40
2783;DHT22;1399;47.072;15.452;2022-11-06T06:27:52;10.80;54.40
2783;DHT22;1399;47.072;15.452;2022-11-06T06:30:19;10.80;54.40
2783;DHT22;1399;47.072;15.452;2022-11-06T06:32:46;10.80;54.40
2783;DHT22;1399;47.072;15.452;2022-11-06T06:35:12;10.80;54.40
2783;DHT22;1399;47.072;15.452;2022-11-06T06:37:37;10.80;54.40
2783;DHT22;1399;47.072;15.452;2022-11-06T06:40:04;10.80;54.40
2783;DHT22;1399;47.072;15.452;2022-11-06T06:42:30;10.80;54.40
2783;DHT22;1399;47.072;15.452;2022-11-06T06:44:56;10.80;54.40
2783;DHT22;1399;47.072;15.452;2022-11-06T06:47:22;10.90;54.50
2783;DHT22;1399;47.072;15.452;2022-11-06T06:49:47;10.90;54.50
2783;DHT22;1399;47.072;15.452;2022-11-06T06:52:13;10.90;54.40
2783;DHT22;1399;47.072;15.452;2022-11-06T06:54:39;10.90;54.40
2783;DHT22;1399;47.072;15.452;2022-11-06T06:57:06;10.90;54.40
2783;DHT22;1399;47.072;15.452;2022-11-06T06:59:33;10.90;54.40
2783;DHT22;1399;47.072;15.452;2022-11-06T07:01:59;11.00;54.50
2783;DHT22;1399;47.072;15.452;2022-11-06T07:04:25;11.00;54.50
2783;DHT22;1399;47.072;15.452;2022-11-06T07:06:54;11.00;54.50
2783;DHT22;1399;47.072;15.452;2022-11-06T07:09:21;11.00;54.50
2783;DHT22;1399;47.072;15.452;2022-11-06T07:11:48;11.00;54.50
2783;DHT22;1399;47.072;15.452;2022-11-06T07:14:14;11.00;54.50
2783;DHT22;1399;47.072;15.452;2022-11-06T07:16:39;11.00;54.50
2783;DHT22;1399;47.072;15.452;2022-11-06T07:19:05;11.00;54.50
2783;DHT22;1399;47.072;15.452;2022-11-06T07:21:31;11.10;54.60
2783;DHT22;1399;47.072;15.452;2022-11-06T07:23:56;11.10;54.70
2783;DHT22;1399;47.072;15.452;2022-11-06T07:26:22;11.10;54.70
2783;DHT22;1399;47.072;15.452;2022-11-06T07:28:48;11.10;54.80
2783;DHT22;1399;47.072;15.452;2022-11-06T07:31:13;11.10;54.80
2783;DHT22;1399;47.072;15.452;2022-11-06T07:33:39;11.10;54.80
2783;DHT22;1399;47.072;15.452;2022-11-06T07:36:12;11.20;54.90
2783;DHT22;1399;47.072;15.452;2022-11-06T07:38:40;11.20;54.80
2783;DHT22;1399;47.072;15.452;2022-11-06T07:41:09;11.20;54.80
2783;DHT22;1399;47.072;15.452;2022-11-06T07:43:36;11.20;54.80
2783;DHT22;1399;47.072;15.452;2022-11-06T07:46:04;11.20;54.80
2783;DHT22;1399;47.072;15.452;2022-11-06T07:48:31;11.30;54.90
2783;DHT22;1399;47.072;15.452;2022-11-06T07:50:58;11.30;54.90
2783;DHT22;1399;47.072;15.452;2022-11-06T07:53:26;11.30;54.90
2783;DHT22;1399;47.072;15.452;2022-11-06T07:55:53;11.30;54.80
2783;DHT22;1399;47.072;15.452;2022-11-06T07:58:20;11.40;54.90
2783;DHT22;1399;47.072;15.452;2022-11-06T08:00:50;11.40;54.90
2783;DHT22;1399;47.072;15.452;2022-11-06T08:03:16;11.40;54.90
2783;DHT22;1399;47.072;15.452;2022-11-06T08:05:43;11.40;54.90
2783;DHT22;1399;47.072;15.452;2022-11-06T08:08:09;11.50;55.00
2783;DHT22;1399;47.072;15.452;2022-11-06T08:10:35;11.50;54.90
2783;DHT22;1399;47.072;15.452;2022-11-06T08:13:05;11.50;54.90
2783;DHT22;1399;47.072;15.452;2022-11-06T08:15:32;11.50;54.90
2783;DHT22;1399;47.072;15.452;2022-11-06T08:17:58;11.60;55.00
2783;DHT22;1399;47.072;15.452;2022-11-06T08:20:24;11.60;55.00
2783;DHT22;1399;47.072;15.452;2022-11-06T08:22:50;11.60;55.00
2783;DHT22;1399;47.072;15.452;2022-11-06T08:25:16;11.70;55.00
2783;DHT22;1399;47.072;15.452;2022-11-06T08:27:42;11.70;54.90
2783;DHT22;1399;47.072;15.452;2022-11-06T08:30:08;11.80;55.10
2783;DHT22;1399;47.072;15.452;2022-11-06T08:32:34;11.80;55.00
2783;DHT22;1399;47.072;15.452;2022-11-06T08:34:59;11.80;55.00
2783;DHT22;1399;47.072;15.452;2022-11-06T08:37:25;11.80;55.00
2783;DHT22;1399;47.072;15.452;2022-11-06T08:39:51;11.90;55.10
2783;DHT22;1399;47.072;15.452;2022-11-06T08:42:17;11.90;55.10
2783;DHT22;1399;47.072;15.452;2022-11-06T08:44:42;11.90;55.00
2783;DHT22;1399;47.072;15.452;2022-11-06T08:47:08;12.00;55.00
2783;DHT22;1399;47.072;15.452;2022-11-06T08:49:34;12.00;54.90
2783;DHT22;1399;47.072;15.452;2022-11-06T08:51:59;12.00;54.90
2783;DHT22;1399;47.072;15.452;2022-11-06T08:54:25;12.10;55.00
2783;DHT22;1399;47.072;15.452;2022-11-06T08:56:51;12.10;55.00
2783;DHT22;1399;47.072;15.452;2022-11-06T08:59:17;12.10;54.90
2783;DHT22;1399;47.072;15.452;2022-11-06T09:01:42;12.10;54.80
2783;DHT22;1399;47.072;15.452;2022-11-06T09:04:08;12.20;54.80
2783;DHT22;1399;47.072;15.452;2022-11-06T09:06:34;12.20;54.90
2783;DHT22;1399;47.072;15.452;2022-11-06T09:09:00;12.20;54.90
2783;DHT22;1399;47.072;15.452;2022-11-06T09:11:26;12.20;54.80
2783;DHT22;1399;47.072;15.452;2022-11-06T09:13:51;12.30;54.80
2783;DHT22;1399;47.072;15.452;2022-11-06T09:16:17;12.30;54.80
2783;DHT22;1399;47.072;15.452;2022-11-06T09:18:43;12.30;54.80
2783;DHT22;1399;47.072;15.452;2022-11-06T09:21:09;12.40;54.90
2783;DHT22;1399;47.072;15.452;2022-11-06T09:23:34;12.30;54.70
2783;DHT22;1399;47.072;15.452;2022-11-06T09:26:00;12.40;54.70
2783;DHT22;1399;47.072;15.452;2022-11-06T09:28:26;12.40;54.60
2783;DHT22;1399;47.072;15.452;2022-11-06T09:30:51;12.50;54.60
2783;DHT22;1399;47.072;15.452;2022-11-06T09:33:19;12.50;54.50
2783;DHT22;1399;47.072;15.452;2022-11-06T09:35:45;12.50;54.40
2783;DHT22;1399;47.072;15.452;2022-11-06T09:38:12;12.50;54.40
2783;DHT22;1399;47.072;15.452;2022-11-06T09:40:52;12.60;54.50
2783;DHT22;1399;47.072;15.452;2022-11-06T09:43:49;12.50;54.50
2783;DHT22;1399;47.072;15.452;2022-11-06T09:46:30;12.60;54.50
2783;DHT22;1399;47.072;15.452;2022-11-06T09:54:14;12.60;54.60
2783;DHT22;1399;47.072;15.452;2022-11-06T09:56:41;12.70;54.60
2783;DHT22;1399;47.072;15.452;2022-11-06T09:59:14;12.70;54.50
2783;DHT22;1399;47.072;15.452;2022-11-06T10:06:55;12.80;54.90
2783;DHT22;1399;47.072;15.452;2022-11-06T10:09:21;12.80;54.90
2783;DHT22;1399;47.072;15.452;2022-11-06T10:12:17;12.80;54.70
2783;DHT22;1399;47.072;15.452;2022-11-06T10:17:28;12.90;54.60
2783;DHT22;1399;47.072;15.452;2022-11-06T10:20:10;12.90;54.70
2783;DHT22;1399;47.072;15.452;2022-11-06T10:22:43;12.90;54.90
2783;DHT22;1399;47.072;15.452;2022-11-06T10:26:04;12.90;54.80
2783;DHT22;1399;47.072;15.452;2022-11-06T10:34:19;13.00;54.70
2783;DHT22;1399;47.072;15.452;2022-11-06T10:37:14;13.00;54.60
2783;DHT22;1399;47.072;15.452;2022-11-06T10:39:42;13.00;54.70
2783;DHT22;1399;47.072;15.452;2022-11-06T10:42:26;13.00;54.80
2783;DHT22;1399;47.072;15.452;2022-11-06T10:45:02;13.10;54.90
2783;DHT22;1399;47.072;15.452;2022-11-06T10:47:47;13.00;54.60
2783;DHT22;1399;47.072;15.452;2022-11-06T10:50:16;13.10;54.40
2783;DHT22;1399;47.072;15.452;2022-11-06T10:55:58;13.10;54.50
2783;DHT22;1399;47.072;15.452;2022-11-06T10:58:30;13.20;54.80
2783;DHT22;1399;47.072;15.452;2022-11-06T11:01:00;13.20;54.70
2783;DHT22;1399;47.072;15.452;2022-11-06T11:03:33;13.10;54.50
2783;DHT22;1399;47.072;15.452;2022-11-06T11:06:00;13.20;54.60
2783;DHT22;1399;47.072;15.452;2022-11-06T11:08:40;13.20;54.40
2783;DHT22;1399;47.072;15.452;2022-11-06T11:13:46;13.20;54.50
2783;DHT22;1399;47.072;15.452;2022-11-06T11:16:24;13.20;54.60
2783;DHT22;1399;47.072;15.452;2022-11-06T11:18:51;13.20;54.60
2783;DHT22;1399;47.072;15.452;2022-11-06T11:21:23;13.30;54.70
2783;DHT22;1399;47.072;15.452;2022-11-06T11:24:06;13.30;54.70
2783;DHT22;1399;47.072;15.452;2022-11-06T11:27:05;13.30;54.90
2783;DHT22;1399;47.072;15.452;2022-11-06T11:29:45;13.30;55.10
2783;DHT22;1399;47.072;15.452;2022-11-06T11:32:18;13.30;55.00
2783;DHT22;1399;47.072;15.452;2022-11-06T11:34:51;13.40;55.20
2783;DHT22;1399;47.072;15.452;2022-11-06T11:37:32;13.40;55.20
2783;DHT22;1399;47.072;15.452;2022-11-06T11:51:28;13.50;54.30
2783;DHT22;1399;47.072;15.452;2022-11-06T11:56:27;13.50;54.50
2783;DHT22;1399;47.072;15.452;2022-11-06T11:58:59;13.50;54.60
2783;DHT22;1399;47.072;15.452;2022-11-06T12:01:39;13.50;54.70
2783;DHT22;1399;47.072;15.452;2022-11-06T12:07:01;13.50;55.10
2783;DHT22;1399;47.072;15.452;2022-11-06T12:09:31;13.50;54.40
2783;DHT22;1399;47.072;15.452;2022-11-06T12:11:59;13.60;54.90
2783;DHT22;1399;47.072;15.452;2022-11-06T12:14:32;13.60;55.00
2783;DHT22;1399;47.072;15.452;2022-11-06T12:19:36;13.60;54.90
2783;DHT22;1399;47.072;15.452;2022-11-06T12:22:16;13.60;54.90
2783;DHT22;1399;47.072;15.452;2022-11-06T12:24:54;13.60;54.80
2783;DHT22;1399;47.072;15.452;2022-11-06T12:27:28;13.60;54.70
2783;DHT22;1399;47.072;15.452;2022-11-06T12:35:38;13.70;54.30
2783;DHT22;1399;47.072;15.452;2022-11-06T12:41:20;13.70;54.80
2783;DHT22;1399;47.072;15.452;2022-11-06T12:43:49;13.70;54.50
2783;DHT22;1399;47.072;15.452;2022-11-06T12:59:37;13.80;55.60
2783;DHT22;1399;47.072;15.452;2022-11-06T13:11:13;13.80;55.70
2783;DHT22;1399;47.072;15.452;2022-11-06T13:24:42;13.80;56.10
2783;DHT22;1399;47.072;15.452;2022-11-06T13:27:32;13.80;55.90
2783;DHT22;1399;47.072;15.452;2022-11-06T13:30:09;13.80;56.10
2783;DHT22;1399;47.072;15.452;2022-11-06T13:32:40;13.90;56.20
2783;DHT22;1399;47.072;15.452;2022-11-06T13:35:16;13.90;56.30
2783;DHT22;1399;47.072;15.452;2022-11-06T13:37:45;13.90;56.10
2783;DHT22;1399;47.072;15.452;2022-11-06T13:40:29;13.90;55.70
2783;DHT22;1399;47.072;15.452;2022-11-06T13:59:45;13.90;55.40
2783;DHT22;1399;47.072;15.452;2022-11-06T14:07:50;13.90;55.30
2783;DHT22;1399;47.072;15.452;2022-11-06T14:10:31;14.00;55.20
2783;DHT22;1399;47.072;15.452;2022-11-06T14:13:01;14.00;54.80
2783;DHT22;1399;47.072;15.452;2022-11-06T14:15:36;14.00;54.50
2783;DHT22;1399;47.072;15.452;2022-11-06T14:18:04;14.00;54.50
2783;DHT22;1399;47.072;15.452;2022-11-06T14:20:35;14.00;54.30
2783;DHT22;1399;47.072;15.452;2022-11-06T14:28:33;14.10;54.60
2783;DHT22;1399;47.072;15.452;2022-11-06T14:30:59;14.10;54.30
2783;DHT22;1399;47.072;15.452;2022-11-06T14:38:51;14.10;53.90
2783;DHT22;1399;47.072;15.452;2022-11-06T14:44:18;14.10;54.10
2783;DHT22;1399;47.072;15.452;2022-11-06T14:46:57;14.10;54.00
2783;DHT22;1399;47.072;15.452;2022-11-06T14:52:02;14.20;54.20
2783;DHT22;1399;47.072;15.452;2022-11-06T14:54:30;14.20;54.20
2783;DHT22;1399;47.072;15.452;2022-11-06T14:56:58;14.20;54.20
2783;DHT22;1399;47.072;15.452;2022-11-06T14:59:38;14.20;54.40
2783;DHT22;1399;47.072;15.452;2022-11-06T15:02:16;14.20;54.40
2783;DHT22;1399;47.072;15.452;2022-11-06T15:04:57;14.20;54.20
2783;DHT22;1399;47.072;15.452;2022-11-06T15:09:58;14.20;53.80
2783;DHT22;1399;47.072;15.452;2022-11-06T15:15:28;14.20;53.80
2783;DHT22;1399;47.072;15.452;2022-11-06T15:17:57;14.20;53.80
2783;DHT22;1399;47.072;15.452;2022-11-06T15:20:29;14.10;53.50
2783;DHT22;1399;47.072;15.452;2022-11-06T15:23:12;14.10;53.50
2783;DHT22;1399;47.072;15.452;2022-11-06T15:25:46;14.10;53.50
2783;DHT22;1399;47.072;15.452;2022-11-06T15:28:26;14.10;53.40
2783;DHT22;1399;47.072;15.452;2022-11-06T15:31:03;14.10;53.30
2783;DHT22;1399;47.072;15.452;2022-11-06T15:33:32;14.10;53.40
2783;DHT22;1399;47.072;15.452;2022-11-06T15:36:05;14.10;53.30
2783;DHT22;1399;47.072;15.452;2022-11-06T15:38:38;14.00;53.30
2783;DHT22;1399;47.072;15.452;2022-11-06T15:41:06;14.00;53.30
2783;DHT22;1399;47.072;15.452;2022-11-06T15:43:36;14.00;53.30
2783;DHT22;1399;47.072;15.452;2022-11-06T15:46:12;14.00;53.30
2783;DHT22;1399;47.072;15.452;2022-11-06T15:48:40;14.00;53.30
2783;DHT22;1399;47.072;15.452;2022-11-06T15:51:26;13.90;53.30
2783;DHT22;1399;47.072;15.452;2022-11-06T15:53:52;13.90;53.30
2783;DHT22;1399;47.072;15.452;2022-11-06T15:56:23;13.90;53.30
2783;DHT22;1399;47.072;15.452;2022-11-06T15:59:12;13.90;53.30
2783;DHT22;1399;47.072;15.452;2022-11-06T16:01:39;13.90;53.40
2783;DHT22;1399;47.072;15.452;2022-11-06T16:04:18;13.90;53.50
2783;DHT22;1399;47.072;15.452;2022-11-06T16:06:45;13.80;53.40
2783;DHT22;1399;47.072;15.452;2022-11-06T16:09:18;13.80;53.50
2783;DHT22;1399;47.072;15.452;2022-11-06T16:11:49;13.80;53.50
2783;DHT22;1399;47.072;15.452;2022-11-06T16:14:16;13.80;53.60
2783;DHT22;1399;47.072;15.452;2022-11-06T16:16:53;13.80;53.60
2783;DHT22;1399;47.072;15.452;2022-11-06T16:19:34;13.70;53.50
2783;DHT22;1399;47.072;15.452;2022-11-06T16:22:10;13.70;53.60
2783;DHT22;1399;47.072;15.452;2022-11-06T16:24:47;13.70;53.50
2783;DHT22;1399;47.072;15.452;2022-11-06T16:27:14;13.70;53.50
2783;DHT22;1399;47.072;15.452;2022-11-06T16:29:48;13.70;53.40
2783;DHT22;1399;47.072;15.452;2022-11-06T16:32:37;13.70;53.50
2783;DHT22;1399;47.072;15.452;2022-11-06T16:35:30;13.70;53.60
2783;DHT22;1399;47.072;15.452;2022-11-06T16:41:04;13.60;53.60
2783;DHT22;1399;47.072;15.452;2022-11-06T16:43:31;13.60;53.60
2783;DHT22;1399;47.072;15.452;2022-11-06T16:46:02;13.70;53.70
2783;DHT22;1399;47.072;15.452;2022-11-06T16:48:34;13.60;53.70
2783;DHT22;1399;47.072;15.452;2022-11-06T16:51:31;13.60;53.70
2783;DHT22;1399;47.072;15.452;2022-11-06T16:54:00;13.60;53.80
2783;DHT22;1399;47.072;15.452;2022-11-06T16:56:32;13.60;53.80
2783;DHT22;1399;47.072;15.452;2022-11-06T16:59:02;13.60;53.90
2783;DHT22;1399;47.072;15.452;2022-11-06T17:01:43;13.60;53.90
2783;DHT22;1399;47.072;15.452;2022-11-06T17:04:21;13.60;54.00
2783;DHT22;1399;47.072;15.452;2022-11-06T17:06:49;13.60;54.60
2783;DHT22;1399;47.072;15.452;2022-11-06T17:11:55;13.50;54.00
2783;DHT22;1399;47.072;15.452;2022-11-06T17:14:22;13.50;54.10
2783;DHT22;1399;47.072;15.452;2022-11-06T17:16:57;13.50;54.20
2783;DHT22;1399;47.072;15.452;2022-11-06T17:19:24;13.50;54.20
2783;DHT22;1399;47.072;15.452;2022-11-06T17:21:50;13.50;54.30
2783;DHT22;1399;47.072;15.452;2022-11-06T17:24:17;13.50;54.30
2783;DHT22;1399;47.072;15.452;2022-11-06T17:26:49;13.50;54.40
2783;DHT22;1399;47.072;15.452;2022-11-06T17:29:16;13.50;54.40
2783;DHT22;1399;47.072;15.452;2022-11-06T17:31:43;13.50;54.50
2783;DHT22;1399;47.072;15.452;2022-11-06T17:34:09;13.50;54.60
2783;DHT22;1399;47.072;15.452;2022-11-06T17:36:37;13.40;54.60
2783;DHT22;1399;47.072;15.452;2022-11-06T17:39:05;13.40;54.70
2783;DHT22;1399;47.072;15.452;2022-11-06T17:41:31;13.40;54.80
2783;DHT22;1399;47.072;15.452;2022-11-06T17:44:07;13.40;54.80
2783;DHT22;1399;47.072;15.452;2022-11-06T17:46:36;13.40;54.90
2783;DHT22;1399;47.072;15.452;2022-11-06T17:49:03;13.40;55.00
2783;DHT22;1399;47.072;15.452;2022-11-06T17:51:30;13.30;55.10
2783;DHT22;1399;47.072;15.452;2022-11-06T17:54:15;13.30;55.10
2783;DHT22;1399;47.072;15.452;2022-11-06T17:56:42;13.30;55.20
2783;DHT22;1399;47.072;15.452;2022-11-06T17:59:12;13.30;55.30
2783;DHT22;1399;47.072;15.452;2022-11-06T18:01:38;13.30;55.30
2783;DHT22;1399;47.072;15.452;2022-11-06T18:04:06;13.20;55.30
2783;DHT22;1399;47.072;15.452;2022-11-06T18:06:33;13.20;55.40
2783;DHT22;1399;47.072;15.452;2022-11-06T18:09:02;13.20;55.50
2783;DHT22;1399;47.072;15.452;2022-11-06T18:11:29;13.20;55.60
2783;DHT22;1399;47.072;15.452;2022-11-06T18:13:55;13.20;55.60
2783;DHT22;1399;47.072;15.452;2022-11-06T18:16:25;13.20;55.70
2783;DHT22;1399;47.072;15.452;2022-11-06T18:18:55;13.20;55.80
2783;DHT22;1399;47.072;15.452;2022-11-06T18:21:21;13.10;55.80
2783;DHT22;1399;47.072;15.452;2022-11-06T18:23:48;13.10;55.90
2783;DHT22;1399;47.072;15.452;2022-11-06T18:26:14;13.10;55.90
2783;DHT22;1399;47.072;15.452;2022-11-06T18:28:40;13.10;56.40
2783;DHT22;1399;47.072;15.452;2022-11-06T18:31:07;13.00;56.00
2783;DHT22;1399;47.072;15.452;2022-11-06T18:33:33;13.00;56.00
2783;DHT22;1399;47.072;15.452;2022-11-06T18:36:04;13.00;56.10
2783;DHT22;1399;47.072;15.452;2022-11-06T18:38:31;13.00;56.20
2783;DHT22;1399;47.072;15.452;2022-11-06T18:40:58;13.00;56.30
2783;DHT22;1399;47.072;15.452;2022-11-06T18:43:26;12.90;56.30
2783;DHT22;1399;47.072;15.452;2022-11-06T18:45:52;12.90;56.30
2783;DHT22;1399;47.072;15.452;2022-11-06T18:48:18;12.90;56.40
2783;DHT22;1399;47.072;15.452;2022-11-06T18:50:44;12.80;56.40
2783;DHT22;1399;47.072;15.452;2022-11-06T18:53:10;12.90;56.50
2783;DHT22;1399;47.072;15.452;2022-11-06T18:55:45;12.80;56.50
2783;DHT22;1399;47.072;15.452;2022-11-06T18:58:11;12.80;56.60
2783;DHT22;1399;47.072;15.452;2022-11-06T19:00:37;12.70;56.50
2783;DHT22;1399;47.072;15.452;2022-11-06T19:03:03;12.70;56.60